Time;durP1;ratioP1;P1;durP2;ratioP2;P2;SDS_P1;SDS_P2;PMS_P1;PMS_P2;Temp;Humidity;BMP_temperature;BMP_pressure;BME280_temperature;BME280_humidity;BME280_pressure;Samples;Min_cycle;Max_cycle;Signal;HPM_P1;HPM_P2
2022/07/14 00:00:24;;;;;;;3.42;2.13;;;;;;;15.12;94.14;98710.16;5125176;27;20091;-71
2022/07/14 00:02:49;;;;;;;5.40;2.08;;;;;;;15.23;94.23;98712.44;5125409;28;20371;-71
2022/07/14 00:05:15;;;;;;;4.32;2.20;;;;;;;15.24;93.66;98708.84;5125368;28;20023;-71
2022/07/14 00:07:40;;;;;;;6.82;2.92;;;;;;;15.20;93.25;98709.88;5125339;28;20334;-71
2022/07/14 00:10:06;;;;;;;3.50;2.20;;;;;;;14.97;93.45;98713.34;5125520;28;20030;-71
2022/07/14 00:12:32;;;;;;;5.45;1.92;;;;;;;15.03;94.11;98709.63;5125284;28;20073;-71
2022/07/14 00:14:57;;;;;;;3.83;2.30;;;;;;;15.10;94.54;98705.84;5125200;28;20019;-71
2022/07/14 00:17:22;;;;;;;4.97;2.30;;;;;;;15.09;94.65;98709.38;5125081;28;20026;-71
2022/07/14 00:19:48;;;;;;;6.28;2.60;;;;;;;14.94;94.10;98697.56;5125098;28;20019;-71
2022/07/14 00:22:13;;;;;;;4.53;2.33;;;;;;;14.93;94.41;98714.38;5125085;28;20023;-71
2022/07/14 00:24:39;;;;;;;5.82;2.58;;;;;;;14.98;94.61;98711.56;5124945;28;20315;-71
2022/07/14 00:27:04;;;;;;;4.72;2.20;;;;;;;14.96;95.84;98708.09;5124758;28;20066;-71
2022/07/14 00:29:29;;;;;;;4.70;2.65;;;;;;;14.94;95.20;98704.66;5124947;28;20019;-71
2022/07/14 00:31:55;;;;;;;4.90;2.15;;;;;;;14.89;95.64;98701.28;5124899;28;20311;-71
2022/07/14 00:34:20;;;;;;;6.40;2.60;;;;;;;14.87;95.71;98703.13;5124911;28;20023;-71
2022/07/14 00:36:46;;;;;;;29.02;2.72;;;;;;;14.81;95.23;98698.06;5124771;28;20043;-71
2022/07/14 00:39:11;;;;;;;5.03;2.30;;;;;;;14.77;94.83;98696.41;5124825;28;20020;-71
2022/07/14 00:41:37;;;;;;;4.40;2.03;;;;;;;14.74;95.48;98697.41;5124781;28;20023;-71
2022/07/14 00:44:03;;;;;;;4.10;2.53;;;;;;;14.72;95.43;98699.22;5124807;28;20026;-71
2022/07/14 00:46:28;;;;;;;4.70;2.78;;;;;;;14.73;95.64;98700.09;5124942;28;20011;-71
2022/07/14 00:48:53;;;;;;;5.40;2.55;;;;;;;14.69;95.32;98699.34;5124733;28;20311;-71
2022/07/14 00:51:19;;;;;;;6.90;2.58;;;;;;;14.68;95.66;98694.13;5124611;28;20023;-71
2022/07/14 00:53:55;;;;;;;5.88;2.35;;;;;;;14.57;95.47;98685.66;5124622;28;20019;-71
2022/07/14 00:56:20;;;;;;;11.55;2.50;;;;;;;14.48;96.59;98689.50;5124809;28;20083;-71
2022/07/14 00:58:46;;;;;;;6.30;2.60;;;;;;;14.47;97.11;98692.19;5124751;28;20026;-71
2022/07/14 01:01:11;;;;;;;4.82;2.10;;;;;;;14.54;97.46;98693.72;5124789;28;20342;-70
2022/07/14 01:03:37;;;;;;;3.08;2.05;;;;;;;14.40;96.58;98682.72;5124559;28;20192;-70
2022/07/14 01:06:02;;;;;;;2.25;1.90;;;;;;;14.48;96.96;98688.63;5124502;28;20023;-70
2022/07/14 01:08:27;;;;;;;5.88;2.63;;;;;;;14.48;96.61;98684.19;5124430;28;20027;-70
2022/07/14 01:10:53;;;;;;;4.15;2.40;;;;;;;14.40;96.52;98680.91;5125088;28;20023;-70
2022/07/14 01:13:18;;;;;;;8.05;2.67;;;;;;;14.30;95.96;98678.66;5128728;28;20188;-70
2022/07/14 01:15:44;;;;;;;3.05;2.10;;;;;;;14.34;96.19;98681.13;5128661;28;20046;-70
2022/07/14 01:18:09;;;;;;;4.20;2.20;;;;;;;14.20;96.91;98677.19;5128662;28;20053;-70
2022/07/14 01:20:34;;;;;;;3.75;2.60;;;;;;;14.22;97.40;98685.94;5128614;28;20023;-70
2022/07/14 01:23:01;;;;;;;5.13;2.38;;;;;;;14.33;98.09;98683.84;5128529;28;20219;-70
2022/07/14 01:25:26;;;;;;;3.55;2.20;;;;;;;14.23;97.21;98677.09;5128720;28;20299;-70
2022/07/14 01:27:52;;;;;;;3.58;2.55;;;;;;;14.23;96.58;98677.09;5128254;28;20104;-70
2022/07/14 01:30:17;;;;;;;5.45;2.50;;;;;;;14.00;96.15;98672.56;5128451;28;20024;-70
2022/07/14 01:32:43;;;;;;;6.55;2.67;;;;;;;13.97;96.48;98663.84;5128396;28;20069;-70
2022/07/14 01:35:08;;;;;;;4.47;2.72;;;;;;;13.99;97.84;98667.31;5128587;28;20184;-70
2022/07/14 01:37:34;;;;;;;5.30;3.00;;;;;;;13.99;97.76;98667.31;5128185;28;20349;-70
2022/07/14 01:40:00;;;;;;;4.93;2.35;;;;;;;14.06;98.27;98674.13;5128482;28;20015;-70
2022/07/14 01:42:26;;;;;;;6.53;2.75;;;;;;;14.03;97.68;98668.94;5128178;28;20027;-70
2022/07/14 01:44:52;;;;;;;3.50;2.50;;;;;;;13.93;97.18;98662.22;5128348;28;20020;-70
2022/07/14 01:47:17;;;;;;;7.95;2.63;;;;;;;13.92;96.81;98660.50;5128105;28;20307;-70
2022/07/14 01:49:43;;;;;;;3.72;2.17;;;;;;;13.78;96.90;98652.97;5127997;28;20023;-70
2022/07/14 01:52:08;;;;;;;4.30;2.40;;;;;;;13.71;96.96;98655.88;5127982;28;20030;-70
2022/07/14 01:54:33;;;;;;;3.97;2.70;;;;;;;13.67;97.35;98659.53;5128021;28;20019;-70
2022/07/14 01:56:59;;;;;;;6.93;2.55;;;;;;;13.69;98.92;98657.69;5127822;28;20372;-70
2022/07/14 01:59:25;;;;;;;5.03;2.70;;;;;;;13.66;99.09;98653.38;5127802;28;20028;-70
2022/07/14 02:01:50;;;;;;;7.28;2.90;;;;;;;13.69;98.64;98657.69;5127833;28;20091;-70
2022/07/14 02:04:19;;;;;;;7.43;2.92;;;;;;;13.78;98.56;98657.41;5127740;28;20031;-70
2022/07/14 02:06:53;;;;;;;6.53;2.80;;;;;;;13.78;97.95;98652.09;5127764;28;20107;-70
2022/07/14 02:09:20;;;;;;;3.63;2.28;;;;;;;13.81;98.28;98652.00;5127710;28;20023;-70
2022/07/14 02:14:31;;;;;;;4.35;2.80;;;;;;;13.74;97.86;98646.06;5127608;28;20103;-70
2022/07/14 02:16:57;;;;;;;4.75;2.38;;;;;;;13.70;97.80;98654.16;5127508;28;20057;-70
2022/07/14 02:19:24;;;;;;;5.75;3.28;;;;;;;13.67;98.09;98648.94;5127522;28;20023;-70
2022/07/14 02:21:51;;;;;;;5.60;2.58;;;;;;;13.66;98.04;98648.06;5127430;28;20087;-70
2022/07/14 02:24:17;;;;;;;5.18;2.97;;;;;;;13.52;96.74;98644.13;5127353;28;20019;-70
2022/07/14 02:26:42;;;;;;;6.50;2.90;;;;;;;13.45;98.46;98642.59;5127134;28;20393;-70
2022/07/14 02:29:08;;;;;;;5.28;2.60;;;;;;;13.37;98.10;98639.31;5127210;28;20023;-70
2022/07/14 02:31:34;;;;;;;4.30;2.65;;;;;;;13.32;97.90;98635.94;5127253;28;20047;-70
2022/07/14 02:34:02;;;;;;;4.97;2.70;;;;;;;13.36;98.57;98646.38;5127328;28;20047;-70
2022/07/14 02:36:28;;;;;;;5.68;2.80;;;;;;;13.44;99.63;98631.13;5127321;28;20428;-70
2022/07/14 02:38:54;;;;;;;7.07;3.00;;;;;;;13.49;99.60;98638.94;5127009;28;20023;-70
2022/07/14 02:41:20;;;;;;;4.43;2.55;;;;;;;13.32;98.51;98630.66;5127009;28;20030;-70
2022/07/14 02:43:46;;;;;;;4.93;2.38;;;;;;;13.16;98.40;98632.03;5126920;28;20086;-70
2022/07/14 02:46:11;;;;;;;4.38;2.67;;;;;;;13.25;99.55;98629.13;5127006;28;20016;-70
2022/07/14 02:48:36;;;;;;;4.38;2.78;;;;;;;13.32;99.58;98635.94;5126962;28;20023;-70
2022/07/14 02:51:11;;;;;;;8.45;2.80;;;;;;;13.21;98.98;98630.09;5126819;28;20023;-70
2022/07/14 02:53:37;;;;;;;7.10;2.95;;;;;;;13.23;99.46;98636.22;5126866;28;20398;-70
2022/07/14 02:56:04;;;;;;;8.10;3.00;;;;;;;13.30;99.40;98640.41;5126657;28;20015;-70
2022/07/14 02:58:29;;;;;;;6.32;2.92;;;;;;;13.29;98.64;98630.75;5126900;28;20311;-70
2022/07/14 03:00:55;;;;;;;6.35;3.08;;;;;;;13.27;98.96;98632.56;5126624;28;20060;-70
2022/07/14 03:03:21;;;;;;;7.15;2.75;;;;;;;13.08;98.90;98632.25;5126675;28;20023;-70
2022/07/14 03:05:47;;;;;;;4.97;3.10;;;;;;;13.13;99.15;98630.31;5126486;28;20022;-70
2022/07/14 03:08:13;;;;;;;5.28;2.95;;;;;;;13.18;99.64;98638.13;5126567;28;20094;-70
2022/07/14 03:10:39;;;;;;;4.05;2.75;;;;;;;13.14;99.38;98639.13;5126734;28;20050;-70
2022/07/14 03:13:04;;;;;;;4.20;2.70;;;;;;;13.17;99.10;98650.50;5126415;28;20024;-70
2022/07/14 03:15:30;;;;;;;4.40;2.78;;;;;;;12.99;99.00;98637.78;5126267;28;20065;-70
2022/07/14 03:17:55;;;;;;;4.63;2.92;;;;;;;12.89;100.00;98636.31;5126358;28;20023;-70
2022/07/14 03:20:21;;;;;;;4.40;2.92;;;;;;;12.94;100.00;98644.94;5126279;28;20043;-70
2022/07/14 03:22:46;;;;;;;5.00;2.83;;;;;;;12.82;99.62;98637.38;5126267;28;20319;-70
2022/07/14 03:25:12;;;;;;;8.38;2.78;;;;;;;12.73;99.95;98641.16;5126186;28;20019;-70
2022/07/14 03:27:38;;;;;;;4.88;2.58;;;;;;;12.80;100.00;98648.00;5126013;28;20098;-70
2022/07/14 03:30:05;;;;;;;5.93;2.70;;;;;;;12.85;100.00;98639.94;5126092;28;20031;-70
2022/07/14 03:32:31;;;;;;;10.35;3.25;;;;;;;12.93;100.00;98649.38;5125998;28;20038;-70
2022/07/14 03:34:57;;;;;;;4.70;2.83;;;;;;;12.91;100.00;98651.19;5125381;28;20086;-70
2022/07/14 03:37:23;;;;;;;4.72;2.90;;;;;;;12.90;100.00;98649.47;5125796;28;20053;-70
2022/07/14 03:39:48;;;;;;;11.35;2.97;;;;;;;12.96;100.00;98649.28;5125880;28;20019;-70
2022/07/14 03:42:14;;;;;;;6.65;2.92;;;;;;;12.84;99.94;98644.34;5125832;28;20023;-70
2022/07/14 03:44:39;;;;;;;4.60;2.85;;;;;;;12.76;99.25;98648.97;5125822;28;20033;-70
2022/07/14 03:47:04;;;;;;;4.97;2.42;;;;;;;12.68;99.35;98640.41;5125836;28;20011;-70
2022/07/14 03:49:30;;;;;;;8.32;3.08;;;;;;;12.72;99.80;98642.03;5125638;28;20026;-70
2022/07/14 03:51:55;;;;;;;7.43;3.03;;;;;;;12.70;100.00;98643.88;5125631;28;20124;-70
2022/07/14 03:54:21;;;;;;;8.43;3.03;;;;;;;12.68;100.00;98648.34;5125584;28;20027;-70
2022/07/14 03:56:46;;;;;;;5.32;3.13;;;;;;;12.74;100.00;98645.53;5125433;28;20027;-70
2022/07/14 03:59:11;;;;;;;4.55;3.13;;;;;;;12.86;100.00;98646.94;5107332;28;20351;-70
2022/07/14 04:01:38;;;;;;;6.22;3.10;;;;;;;12.90;100.00;98644.19;5125517;28;20185;-70
2022/07/14 04:04:04;;;;;;;6.78;2.95;;;;;;;12.91;100.00;98642.41;5125373;28;20327;-70
2022/07/14 04:06:29;;;;;;;9.15;3.60;;;;;;;12.79;100.00;98643.59;5125350;28;20018;-70
2022/07/14 04:08:55;;;;;;;5.13;3.15;;;;;;;12.90;100.00;98644.19;5125296;28;20020;-70
2022/07/14 04:11:20;;;;;;;8.35;3.25;;;;;;;13.02;100.00;98649.16;5107112;28;20031;-70
2022/07/14 04:13:45;;;;;;;5.43;3.03;;;;;;;13.07;100.00;98645.50;5125188;28;20280;-70
2022/07/14 04:16:11;;;;;;;4.22;3.08;;;;;;;13.15;100.00;98659.34;5125206;28;20042;-70
2022/07/14 04:18:36;;;;;;;8.35;3.50;;;;;;;13.21;100.00;98643.31;5125256;28;20122;-70
2022/07/14 04:21:02;;;;;;;5.70;2.90;;;;;;;13.21;98.54;98657.41;5125091;28;20031;-70
2022/07/14 04:23:28;;;;;;;7.20;2.80;;;;;;;13.17;98.83;98652.25;5125062;28;20086;-70
2022/07/14 04:25:53;;;;;;;9.18;3.08;;;;;;;13.15;99.51;98643.50;5125044;28;20015;-70
2022/07/14 04:28:18;;;;;;;8.07;3.28;;;;;;;13.16;100.00;98655.81;5124761;28;20043;-70
2022/07/14 04:30:44;;;;;;;4.82;2.65;;;;;;;13.26;100.00;98647.56;5124902;28;20036;-70
2022/07/14 04:33:10;;;;;;;7.53;3.03;;;;;;;13.27;99.36;98645.78;5124925;28;20016;-70
2022/07/14 04:35:36;;;;;;;4.63;3.08;;;;;;;13.27;99.53;98649.31;5124845;28;20068;-70
2022/07/14 04:38:02;;;;;;;7.38;3.20;;;;;;;13.38;99.26;98651.63;5125110;28;20064;-70
2022/07/14 04:40:28;;;;;;;4.30;3.13;;;;;;;13.67;98.64;98656.88;5124845;28;20042;-70
2022/07/14 04:42:54;;;;;;;5.70;3.38;;;;;;;14.27;96.99;98665.53;5124750;28;20026;-70
2022/07/14 04:45:20;;;;;;;5.65;3.20;;;;;;;15.23;92.33;98664.69;5124044;28;20072;-70
2022/07/14 04:47:46;;;;;;;7.45;2.63;;;;;;;15.33;90.00;98655.47;5124502;28;20034;-70
2022/07/14 04:52:55;;;;;;;4.25;2.88;;;;;;;15.21;89.26;98650.63;5124665;28;20027;-70
2022/07/14 04:55:20;;;;;;;8.10;2.90;;;;;;;15.03;89.91;98651.31;5124528;28;20028;-70
2022/07/14 04:57:46;;;;;;;4.30;2.80;;;;;;;15.01;89.84;98648.72;5124589;28;20323;-70
2022/07/14 05:00:12;;;;;;;6.28;2.80;;;;;;;16.74;85.24;98659.44;5124565;28;20046;-70
2022/07/14 05:02:37;;;;;;;4.20;2.20;;;;;;;18.04;80.31;98664.91;5124557;28;20020;-70
2022/07/14 05:05:04;;;;;;;2.88;2.03;;;;;;;18.27;77.62;98649.53;5124590;28;20028;-70
2022/07/14 05:07:29;;;;;;;4.70;2.28;;;;;;;17.32;80.46;98647.03;5124483;28;20016;-70
2022/07/14 05:09:55;;;;;;;14.85;2.55;;;;;;;16.79;83.76;98647.66;5124670;28;20026;-70
2022/07/14 05:12:20;;;;;;;3.63;2.25;;;;;;;16.49;86.16;98643.66;5124488;28;20019;-70
2022/07/14 05:14:46;;;;;;;4.15;2.60;;;;;;;16.45;87.38;98644.72;5124430;28;20019;-70
2022/07/14 05:17:11;;;;;;;5.72;2.58;;;;;;;16.92;87.12;98654.16;5124305;28;20019;-70
2022/07/14 05:19:38;;;;;;;5.30;2.83;;;;;;;16.73;86.81;98645.28;5124367;28;20026;-70
2022/07/14 05:22:03;;;;;;;7.70;2.63;;;;;;;16.44;87.44;98645.66;5124356;28;20048;-70
2022/07/14 05:24:30;;;;;;;4.80;3.20;;;;;;;16.23;87.63;98640.38;5124332;28;20245;-70
2022/07/14 05:26:58;;;;;;;8.88;2.97;;;;;;;16.31;88.50;98644.44;5124114;28;20040;-70
2022/07/14 05:29:24;;;;;;;3.72;2.50;;;;;;;16.48;89.71;98652.56;5124293;28;20023;-70
2022/07/14 05:31:51;;;;;;;6.22;2.47;;;;;;;16.67;89.23;98653.50;5124252;28;20342;-70
2022/07/14 05:34:17;;;;;;;4.50;3.20;;;;;;;16.76;88.29;98650.47;5124254;28;20019;-70
2022/07/14 05:36:42;;;;;;;8.82;2.75;;;;;;;17.99;84.67;98661.59;5124373;28;20323;-70
2022/07/14 05:39:07;;;;;;;6.88;2.30;;;;;;;18.33;82.47;98651.00;5124249;28;20046;-70
2022/07/14 05:41:33;;;;;;;6.57;2.70;;;;;;;18.37;81.11;98647.28;5124228;28;20315;-70
2022/07/14 05:43:58;;;;;;;3.42;2.50;;;;;;;18.42;80.72;98650.59;5124416;28;20020;-70
2022/07/14 05:46:24;;;;;;;9.02;2.60;;;;;;;18.87;78.81;98653.56;5124073;28;20046;-70
2022/07/14 05:48:49;;;;;;;4.40;2.08;;;;;;;20.48;74.15;98658.75;5124117;28;20028;-70
2022/07/14 05:51:17;;;;;;;3.85;2.08;;;;;;;21.74;67.44;98643.84;5124102;28;20023;-70
2022/07/14 05:53:44;;;;;;;4.75;2.63;;;;;;;22.38;66.74;98646.72;5123969;28;20035;-70
2022/07/14 05:56:10;;;;;;;4.32;2.50;;;;;;;23.88;63.46;98648.72;5124006;28;20324;-70
2022/07/14 05:58:37;;;;;;;5.95;2.20;;;;;;;24.80;60.48;98659.66;5127507;28;20136;-70
2022/07/14 06:01:04;;;;;;;4.38;2.10;;;;;;;24.83;59.82;98650.47;5127876;28;20019;-70
2022/07/14 06:03:30;;;;;;;3.72;2.30;;;;;;;25.56;57.06;98653.72;5127808;28;20091;-70
2022/07/14 06:05:59;;;;;;;6.57;1.50;;;;;;;25.55;57.79;98647.47;5127759;28;20031;-70
2022/07/14 06:08:24;;;;;;;7.13;2.20;;;;;;;24.92;59.10;98639.88;5127686;28;20115;-70
2022/07/14 06:10:49;;;;;;;5.43;1.95;;;;;;;26.53;55.80;98658.25;5127662;28;20019;-70
2022/07/14 06:13:15;;;;;;;4.03;1.70;;;;;;;27.16;53.14;98659.13;5127527;28;20024;-70
2022/07/14 06:15:40;;;;;;;2.55;1.85;;;;;;;27.49;52.62;98655.34;5127566;28;20023;-70
2022/07/14 06:18:09;;;;;;;5.72;2.28;;;;;;;27.64;51.48;98653.13;5127507;28;20050;-71
2022/07/14 06:20:34;;;;;;;4.63;1.70;;;;;;;28.01;51.35;98647.09;5127537;28;20019;-71
2022/07/14 06:22:59;;;;;;;8.18;2.17;;;;;;;28.72;51.64;98654.91;5127355;28;20039;-71
2022/07/14 06:25:25;;;;;;;4.82;1.85;;;;;;;28.03;52.05;98639.66;5127498;28;20019;-71
2022/07/14 06:27:50;;;;;;;6.57;1.60;;;;;;;29.14;50.53;98650.94;5127124;28;20110;-71
2022/07/14 06:30:15;;;;;;;5.18;1.70;;;;;;;29.33;50.78;98643.78;5127298;28;20024;-71
2022/07/14 06:32:41;;;;;;;4.68;1.77;;;;;;;28.86;49.28;98629.25;5127203;28;20090;-71
2022/07/14 06:35:08;;;;;;;7.28;2.20;;;;;;;29.08;50.35;98632.53;5127236;28;20322;-71
2022/07/14 06:37:36;;;;;;;7.47;2.35;;;;;;;29.35;48.60;98630.94;5127135;28;20196;-71
2022/07/14 06:40:05;;;;;;;4.28;2.03;;;;;;;30.04;48.75;98634.97;5127109;28;20050;-71
2022/07/14 06:42:31;;;;;;;6.15;1.52;;;;;;;30.91;44.70;98626.13;5127003;28;20051;-71
2022/07/14 06:44:56;;;;;;;9.38;2.03;;;;;;;31.47;45.90;98633.91;5127252;28;20086;-71
2022/07/14 06:47:22;;;;;;;6.88;1.98;;;;;;;31.84;43.35;98621.72;5126979;28;20311;-71
2022/07/14 06:49:47;;;;;;;6.72;1.90;;;;;;;32.02;43.18;98621.63;5126915;28;20028;-71
2022/07/14 06:52:13;;;;;;;10.43;2.20;;;;;;;32.44;40.23;98620.63;5126889;28;20024;-71
2022/07/14 06:54:38;;;;;;;7.57;2.10;;;;;;;32.39;38.71;98617.53;5108644;28;20068;-71
2022/07/14 06:57:03;;;;;;;4.85;1.70;;;;;;;33.73;36.26;98626.09;5126689;28;20069;-71
2022/07/14 06:59:29;;;;;;;9.68;2.00;;;;;;;34.79;36.04;98632.63;5126798;28;20219;-71
2022/07/14 07:01:54;;;;;;;4.90;1.92;;;;;;;33.86;34.67;98610.00;5126646;28;20020;-71
2022/07/14 07:04:20;;;;;;;12.15;1.80;;;;;;;32.56;36.69;98597.47;5126604;28;20065;-71
2022/07/14 07:06:45;;;;;;;7.97;1.70;;;;;;;31.59;38.80;98599.94;5126596;28;20204;-71
2022/07/14 07:09:16;;;;;;;5.28;1.70;;;;;;;31.15;39.25;98588.25;5125805;28;20027;-71
2022/07/14 07:11:43;;;;;;;8.55;1.80;;;;;;;30.88;39.10;98583.78;5126455;28;20022;-71
2022/07/14 07:14:09;;;;;;;6.03;1.80;;;;;;;31.51;39.34;98597.19;5126431;28;20061;-71
2022/07/14 07:16:34;;;;;;;6.45;1.70;;;;;;;31.16;39.77;98592.66;5126256;28;20019;-71
2022/07/14 07:19:00;;;;;;;2.72;1.63;;;;;;;30.90;39.62;98591.78;5126322;28;20019;-71
2022/07/14 07:21:25;;;;;;;8.45;2.05;;;;;;;31.16;38.62;98592.66;5126285;28;20023;-71
2022/07/14 07:23:54;;;;;;;6.15;1.80;;;;;;;31.32;36.97;98590.09;5126285;28;20024;-71
2022/07/14 07:26:21;;;;;;;9.13;2.13;;;;;;;31.62;37.54;98586.88;5125986;28;20050;-71
2022/07/14 07:28:46;;;;;;;7.18;1.98;;;;;;;31.89;38.07;98586.69;5126293;28;20078;-71
2022/07/14 07:31:11;;;;;;;5.07;1.85;;;;;;;31.70;38.63;98589.63;5126275;28;20026;-71
2022/07/14 07:33:37;;;;;;;5.85;1.67;;;;;;;30.74;38.93;98575.34;5126083;28;20019;-71
2022/07/14 07:36:02;;;;;;;4.38;1.90;;;;;;;32.05;37.54;98596.78;5125898;28;20031;-71
2022/07/14 07:38:28;;;;;;;5.47;1.52;;;;;;;32.94;36.13;98599.56;5126139;28;20069;-71
2022/07/14 07:40:53;;;;;;;5.28;1.70;;;;;;;32.01;36.09;98588.09;5125841;28;20030;-71
2022/07/14 07:43:22;;;;;;;4.78;1.67;;;;;;;32.28;36.91;98590.56;5125849;28;20306;-71
2022/07/14 07:45:50;;;;;;;5.47;1.42;;;;;;;32.99;35.75;98594.47;5125863;28;20084;-71
2022/07/14 07:48:16;;;;;;;4.47;1.60;;;;;;;33.41;36.29;98605.19;5125730;28;20023;-71
2022/07/14 07:50:43;;;;;;;5.18;1.50;;;;;;;34.39;36.61;98613.75;5125710;28;20098;-71
2022/07/14 07:53:09;;;;;;;5.10;1.88;;;;;;;35.01;33.53;98603.59;5125676;28;20024;-71
2022/07/14 07:55:34;;;;;;;7.35;1.80;;;;;;;36.29;32.50;98612.38;5125749;28;20030;-71
2022/07/14 07:58:00;;;;;;;4.25;1.65;;;;;;;36.57;30.51;98605.97;5125570;28;20274;-71
2022/07/14 08:00:25;;;;;;;7.57;1.73;;;;;;;36.84;30.75;98593.41;5125751;28;20016;-71
2022/07/14 08:02:53;;;;;;;2.88;1.50;;;;;;;35.84;31.96;98586.03;5125721;28;20019;-71
2022/07/14 08:05:20;;;;;;;4.18;1.65;;;;;;;34.57;33.64;98578.78;5125342;28;20099;-71
2022/07/14 08:07:45;;;;;;;14.07;2.05;;;;;;;33.55;34.73;98568.13;5125552;28;20199;-71
2022/07/14 08:10:11;;;;;;;8.38;2.15;;;;;;;33.66;36.79;98575.97;5125591;28;20022;-71
2022/07/14 08:12:38;;;;;;;5.20;1.55;;;;;;;34.12;35.17;98591.50;5125349;28;20030;-72
2022/07/14 08:15:05;;;;;;;8.95;1.83;;;;;;;35.19;34.26;98578.63;5125287;28;20223;-72
2022/07/14 08:17:31;;;;;;;3.03;1.70;;;;;;;34.03;34.68;98568.81;5125348;28;20304;-72
2022/07/14 08:19:56;;;;;;;4.07;1.45;;;;;;;34.59;33.87;98581.34;5124942;28;20023;-72
2022/07/14 08:22:26;;;;;;;3.10;1.70;;;;;;;34.08;35.53;98582.81;5125111;28;20023;-72
2022/07/14 08:24:53;;;;;;;10.80;2.13;;;;;;;34.45;35.30;98573.94;5125110;28;20037;-72
2022/07/14 08:27:19;;;;;;;16.13;2.15;;;;;;;34.83;33.95;98562.03;5124847;28;20035;-72
2022/07/14 08:29:44;;;;;;;8.45;2.10;;;;;;;35.53;33.33;98576.28;5125020;28;20047;-72
2022/07/14 08:32:10;;;;;;;8.95;1.98;;;;;;;34.80;32.30;98567.84;5125009;28;20026;-72
2022/07/14 08:34:36;;;;;;;6.25;1.45;;;;;;;35.22;32.02;98568.19;5124965;28;20094;-72
2022/07/14 08:37:01;;;;;;;5.50;1.70;;;;;;;35.71;31.12;98557.59;5124825;28;20023;-72
2022/07/14 08:39:27;;;;;;;4.50;1.50;;;;;;;36.31;31.13;98572.75;5125114;28;20124;-72
2022/07/14 08:41:56;;;;;;;8.07;1.58;;;;;;;37.30;29.73;98569.16;5124803;28;20023;-72
2022/07/14 08:44:23;;;;;;;5.05;1.55;;;;;;;36.91;30.14;98564.13;5124694;28;20064;-72
2022/07/14 08:46:50;;;;;;;13.07;2.08;;;;;;;36.88;30.43;98564.53;5124703;28;20043;-72
2022/07/14 08:49:16;;;;;;;10.52;2.10;;;;;;;37.32;30.33;98572.56;5124674;28;20094;-72
2022/07/14 08:51:43;;;;;;;2.88;1.42;;;;;;;37.86;28.64;98566.16;5124742;28;20072;-71
2022/07/14 08:54:10;;;;;;;3.78;1.63;;;;;;;37.75;28.17;98563.16;5124688;28;20027;-71
2022/07/14 08:56:39;;;;;;;16.83;1.58;;;;;;;37.11;29.28;98556.09;5124677;28;20072;-71
2022/07/14 08:59:05;;;;;;;6.05;1.85;;;;;;;36.79;31.16;98561.06;5124570;28;20027;-71
2022/07/14 09:01:31;;;;;;;8.57;1.63;;;;;;;37.99;29.49;98579.16;5124554;28;20076;-71
2022/07/14 09:03:56;;;;;;;13.52;2.13;;;;;;;37.74;29.15;98561.47;5124524;28;20246;-71
2022/07/14 09:06:47;;;;;;;6.60;1.50;;;;;;;37.94;29.78;98563.25;5124528;28;20026;-71
2022/07/14 09:09:38;;;;;;;3.60;1.93;;;;;;;38.13;29.39;98567.19;5124550;28;20043;-71
2022/07/14 09:12:09;;;;;;;15.45;2.10;;;;;;;38.33;28.59;98551.59;5119506;28;20262;-71
2022/07/14 09:17:26;;;;;;;4.80;1.83;;;;;;;37.24;29.98;98537.84;5124376;28;20046;-71
2022/07/14 09:20:10;;;;;;;6.38;1.90;;;;;;;36.81;29.39;98526.06;5124419;28;20027;-71
2022/07/14 09:22:41;;;;;;;12.40;1.80;;;;;;;36.28;31.37;98521.06;5124427;28;20023;-71
2022/07/14 09:25:13;;;;;;;10.38;2.00;;;;;;;34.99;32.31;98502.53;5124409;28;20023;-71
2022/07/14 09:27:39;;;;;;;8.80;1.73;;;;;;;34.64;34.38;98502.34;5124205;28;20064;-71
2022/07/14 09:30:06;;;;;;;6.10;1.73;;;;;;;34.40;33.95;98497.06;5124273;28;20034;-71
2022/07/14 09:32:56;;;;;;;9.27;2.00;;;;;;;34.35;34.22;98500.34;5125949;28;20034;-71
2022/07/14 09:35:42;;;;;;;5.45;1.50;;;;;;;34.49;34.01;98498.72;5128402;28;20023;-71
2022/07/14 09:38:19;;;;;;;10.32;1.80;;;;;;;36.03;33.45;98522.41;5127867;28;20057;-71
2022/07/14 09:40:46;;;;;;;3.83;1.83;;;;;;;37.23;31.12;98532.56;5128316;28;20136;-71
2022/07/14 09:43:14;;;;;;;4.43;1.80;;;;;;;37.26;30.48;98523.94;5128377;28;20072;-71
2022/07/14 09:45:44;;;;;;;3.35;2.03;;;;;;;36.81;31.46;98511.50;5128118;28;20023;-71
2022/07/14 09:48:12;;;;;;;5.53;1.70;;;;;;;36.64;31.64;98508.13;5128098;28;20042;-71
2022/07/14 09:50:45;;;;;;;6.63;1.80;;;;;;;36.70;32.18;98496.38;5128084;28;20238;-71
2022/07/14 09:53:15;;;;;;;6.05;1.52;;;;;;;36.99;30.66;98511.88;5128279;28;20050;-71
2022/07/14 09:55:48;;;;;;;6.00;1.98;;;;;;;37.31;31.31;98505.81;5127985;28;20023;-71
2022/07/14 09:58:13;;;;;;;5.45;1.83;;;;;;;35.79;32.44;98487.13;5127946;28;20099;-71
2022/07/14 10:00:41;;;;;;;4.07;1.75;;;;;;;36.84;31.65;98503.72;5127933;28;20027;-71
2022/07/14 10:03:07;;;;;;;6.32;1.70;;;;;;;37.13;30.96;98501.84;5127917;28;20087;-70
2022/07/14 10:05:33;;;;;;;8.75;2.00;;;;;;;37.76;31.11;98507.13;5127712;28;20026;-70
2022/07/14 10:08:03;;;;;;;5.35;2.00;;;;;;;37.66;30.38;98495.69;5127734;28;20215;-70
2022/07/14 10:10:32;;;;;;;4.32;1.77;;;;;;;37.58;30.21;98484.84;5127958;28;20263;-70
2022/07/14 10:12:58;;;;;;;4.75;1.70;;;;;;;37.70;30.17;98484.06;5127662;28;20023;-70
2022/07/14 10:15:25;;;;;;;2.80;1.58;;;;;;;38.04;28.97;98485.91;5127682;28;20023;-71
2022/07/14 10:17:51;;;;;;;9.35;1.80;;;;;;;37.46;29.68;98476.31;5127525;28;20022;-71
2022/07/14 10:20:17;;;;;;;15.13;2.10;;;;;;;37.81;30.11;98493.66;5127498;28;20028;-71
2022/07/14 10:22:45;;;;;;;6.97;1.90;;;;;;;38.34;29.94;98479.06;5127712;28;20060;-71
2022/07/14 10:25:10;;;;;;;3.58;1.55;;;;;;;38.68;27.85;98473.41;5127455;28;20027;-71
2022/07/14 10:27:39;;;;;;;6.53;1.67;;;;;;;38.86;27.60;98465.38;5127238;28;20260;-71
2022/07/14 10:30:05;;;;;;;7.78;1.75;;;;;;;38.72;28.50;98460.94;5127269;28;20027;-71
2022/07/14 10:32:55;;;;;;;13.25;2.10;;;;;;;38.90;29.04;98461.13;5127265;28;20051;-71
2022/07/14 10:35:28;;;;;;;8.15;2.00;;;;;;;38.90;28.90;98472.13;5127172;28;20086;-71
2022/07/14 10:38:11;;;;;;;7.30;1.80;;;;;;;38.20;29.32;98452.56;5127084;28;20334;-71
2022/07/14 10:40:45;;;;;;;19.88;2.20;;;;;;;37.18;30.40;98449.91;5127375;28;20061;-71
2022/07/14 10:43:15;;;;;;;3.58;1.65;;;;;;;37.58;29.78;98446.38;5126242;28;20030;-71
2022/07/14 10:45:51;;;;;;;3.67;1.83;;;;;;;36.92;29.29;98445.13;5108407;28;20042;-71
2022/07/14 10:48:31;;;;;;;9.88;2.10;;;;;;;36.74;29.64;98442.00;5126912;28;20023;-71
2022/07/14 10:51:21;;;;;;;9.02;1.90;;;;;;;36.09;31.32;98431.22;5126932;28;20376;-71
2022/07/14 10:54:13;;;;;;;5.63;1.80;;;;;;;36.04;32.11;98421.88;5127062;28;20322;-71
2022/07/14 10:56:40;;;;;;;5.72;1.65;;;;;;;35.32;32.70;98420.94;5126714;28;20319;-71
2022/07/14 10:59:28;;;;;;;7.50;2.05;;;;;;;35.48;33.61;98426.25;5127008;28;20188;-71
2022/07/14 11:02:12;;;;;;;7.47;2.20;;;;;;;35.62;32.63;98419.88;5126990;28;20066;-71
2022/07/14 11:05:11;;;;;;;8.55;1.92;;;;;;;36.03;31.33;98421.03;5126579;28;20019;-71
2022/07/14 11:07:51;;;;;;;7.10;1.60;;;;;;;36.11;31.35;98409.94;5126833;28;20223;-71
2022/07/14 11:10:19;;;;;;;4.40;1.98;;;;;;;36.82;31.89;98423.50;5126528;28;20049;-71
2022/07/14 11:12:59;;;;;;;10.65;1.95;;;;;;;36.69;30.72;98412.38;5126500;28;20092;-71
2022/07/14 11:15:38;;;;;;;6.93;1.87;;;;;;;36.88;31.08;98406.22;5126476;28;20023;-71
2022/07/14 11:18:21;;;;;;;5.47;2.00;;;;;;;36.02;31.71;98402.03;5126689;28;20032;-71
2022/07/14 11:21:02;;;;;;;5.80;2.15;;;;;;;34.51;32.49;98393.59;5126274;28;20056;-71
2022/07/14 11:23:30;;;;;;;4.57;1.98;;;;;;;34.44;34.13;98402.72;5126280;28;20331;-71
2022/07/14 11:26:00;;;;;;;4.35;1.58;;;;;;;35.00;33.53;98407.66;5126223;28;20024;-71
2022/07/14 11:28:31;;;;;;;4.90;1.70;;;;;;;34.91;33.50;98389.63;5126109;28;20092;-71
2022/07/14 11:31:16;;;;;;;8.70;2.08;;;;;;;34.37;33.40;98390.84;5126045;28;20023;-71
2022/07/14 11:36:30;;;;;;;9.13;2.08;;;;;;;35.90;33.75;98409.94;5125980;28;20064;-71
2022/07/14 11:39:18;;;;;;;6.80;1.70;;;;;;;36.24;31.16;98401.84;5125960;28;20064;-71
2022/07/14 11:41:43;;;;;;;5.43;1.90;;;;;;;35.82;32.87;98388.16;5125941;28;20042;-71
2022/07/14 11:44:40;;;;;;;6.70;1.88;;;;;;;35.92;32.88;98394.16;5125812;28;20316;-71